Time;durP1;ratioP1;P1;durP2;ratioP2;P2;SDS_P1;SDS_P2;PMS_P1;PMS_P2;Temp;Humidity;BMP_temperature;BMP_pressure;BME280_temperature;BME280_humidity;BME280_pressure;Samples;Min_cycle;Max_cycle;Signal;HPM_P1;HPM_P2
2021/03/07 00:00:17;;;;;;;17.65;11.13;;;;;;;3.63;47.16;102060.88;349959;28;1147;-69
2021/03/07 00:00:28;;;;;;;17.02;11.00;;;;;;;3.60;46.85;102058.22;347630;28;71068;-69
2021/03/07 00:00:39;;;;;;;15.25;11.00;;;;;;;3.55;46.94;102066.06;350862;28;1191;-70
2021/03/07 00:00:51;;;;;;;16.30;11.13;;;;;;;3.58;47.63;102067.81;350892;28;1132;-69
2021/03/07 00:01:02;;;;;;;16.15;11.38;;;;;;;3.60;47.25;102056.50;350786;28;1384;-69
2021/03/07 00:01:14;;;;;;;16.84;11.04;;;;;;;3.66;47.60;102058.28;350858;28;1057;-69
2021/03/07 00:01:25;;;;;;;16.25;10.75;;;;;;;3.68;47.36;102056.50;351005;28;1155;-69
2021/03/07 00:01:36;;;;;;;15.43;10.65;;;;;;;3.72;47.32;102060.88;350977;28;1103;-69
2021/03/07 00:01:47;;;;;;;15.43;10.68;;;;;;;3.70;46.73;102060.03;350916;28;1106;-68
2021/03/07 00:01:59;;;;;;;16.10;10.52;;;;;;;3.67;47.06;102060.88;350951;28;1196;-69
2021/03/07 00:02:10;;;;;;;16.08;10.63;;;;;;;3.58;47.12;102058.22;350865;28;1237;-69
2021/03/07 00:02:21;;;;;;;15.90;10.98;;;;;;;3.55;47.07;102066.94;351032;28;1027;-68
2021/03/07 00:02:33;;;;;;;16.00;11.05;;;;;;;3.50;47.11;102059.94;350890;28;1222;-69
2021/03/07 00:02:44;;;;;;;15.65;10.82;;;;;;;3.43;47.22;102051.22;350772;28;1168;-69
2021/03/07 00:02:55;;;;;;;16.42;10.95;;;;;;;3.51;47.20;102064.31;350868;28;1069;-69
2021/03/07 00:03:07;;;;;;;16.52;10.77;;;;;;;3.57;47.26;102053.88;350885;28;1147;-69
2021/03/07 00:03:18;;;;;;;15.98;10.90;;;;;;;3.57;47.35;102061.72;349901;28;1839;-69
2021/03/07 00:03:29;;;;;;;15.35;10.60;;;;;;;3.59;47.14;102061.75;350347;28;2308;-69
2021/03/07 00:03:40;;;;;;;15.25;10.88;;;;;;;3.62;47.49;102061.75;349421;28;1182;-69
2021/03/07 00:03:51;;;;;;;15.35;10.88;;;;;;;3.65;47.22;102059.13;350485;28;1166;-69
2021/03/07 00:04:02;;;;;;;16.13;11.13;;;;;;;3.68;47.32;102056.50;350914;28;1096;-70
2021/03/07 00:04:13;;;;;;;15.68;11.00;;;;;;;3.71;47.21;102054.78;350912;28;1080;-69
2021/03/07 00:04:24;;;;;;;15.48;10.80;;;;;;;3.72;47.03;102058.28;349519;28;1056;-69
2021/03/07 00:04:36;;;;;;;16.45;10.88;;;;;;;3.73;47.37;102055.66;349587;28;1143;-67
2021/03/07 00:04:47;;;;;;;16.70;10.93;;;;;;;3.77;47.38;102046.09;349485;28;1139;-69
2021/03/07 00:04:58;;;;;;;18.88;11.00;;;;;;;3.65;47.37;102056.50;350889;28;1041;-69
2021/03/07 00:05:11;;;;;;;16.83;10.80;;;;;;;3.68;47.46;102056.50;350888;28;1006;-70
2021/03/07 00:05:22;;;;;;;17.27;11.23;;;;;;;3.59;47.35;102054.75;351433;28;1108;-69
2021/03/07 00:05:33;;;;;;;16.65;11.52;;;;;;;3.45;47.03;102057.34;352014;28;1249;-69
2021/03/07 00:05:45;;;;;;;16.05;11.20;;;;;;;3.46;47.36;102055.56;352224;28;1104;-68
2021/03/07 00:05:56;;;;;;;15.38;10.80;;;;;;;3.50;47.38;102050.38;352333;28;1033;-69
2021/03/07 00:06:07;;;;;;;14.96;10.88;;;;;;;3.57;47.57;102059.09;352320;28;1091;-69
2021/03/07 00:06:18;;;;;;;15.77;11.27;;;;;;;3.62;46.98;102051.28;352288;28;1083;-69
2021/03/07 00:06:29;;;;;;;17.58;11.43;;;;;;;3.65;47.19;102053.91;352236;28;1126;-69
2021/03/07 00:06:40;;;;;;;18.88;11.30;;;;;;;3.65;47.26;102057.38;352213;28;2125;-70
2021/03/07 00:06:51;;;;;;;16.88;11.00;;;;;;;3.64;47.46;102052.16;351997;28;1153;-69
2021/03/07 00:07:03;;;;;;;15.68;10.98;;;;;;;3.66;47.68;102058.28;350947;28;1129;-69
2021/03/07 00:07:14;;;;;;;16.00;11.00;;;;;;;3.66;46.94;102053.03;350826;28;1241;-69
2021/03/07 00:07:25;;;;;;;16.08;11.10;;;;;;;3.62;47.30;102053.91;350842;28;1471;-67
2021/03/07 00:07:36;;;;;;;16.25;11.10;;;;;;;3.62;47.50;102051.28;349908;28;1891;-69
2021/03/07 00:07:49;;;;;;;16.20;11.07;;;;;;;3.66;46.76;102058.28;350372;28;945;-69
2021/03/07 00:08:00;;;;;;;16.48;11.38;;;;;;;3.60;47.34;102053.91;349728;28;1092;-68
2021/03/07 00:08:11;;;;;;;16.13;11.05;;;;;;;3.56;47.78;102053.00;351050;28;1271;-68
2021/03/07 00:08:22;;;;;;;16.58;11.27;;;;;;;3.58;47.37;102052.16;352210;28;1302;-69
2021/03/07 00:08:37;;;;;;;16.63;10.75;;;;;;;3.61;47.40;102055.63;351802;28;1164;-69
2021/03/07 00:09:03;;;;;;;15.15;10.68;;;;;;;3.66;47.55;102053.03;349626;28;70762;-69
2021/03/07 00:09:14;;;;;;;15.48;10.70;;;;;;;3.63;47.37;102051.28;352306;28;1076;-69
2021/03/07 00:09:25;;;;;;;15.25;10.95;;;;;;;3.62;47.39;102060.00;350693;28;1951;-69
2021/03/07 00:09:36;;;;;;;15.10;10.82;;;;;;;3.60;47.47;102056.50;350541;28;1171;-69
2021/03/07 00:09:47;;;;;;;14.93;10.82;;;;;;;3.59;47.41;102054.75;349473;28;2042;-69
2021/03/07 00:09:58;;;;;;;14.45;10.85;;;;;;;3.62;47.62;102056.50;349409;28;1229;-69
2021/03/07 00:10:11;;;;;;;14.50;11.20;;;;;;;3.63;47.51;102048.69;348107;28;1401;-70
2021/03/07 00:10:23;;;;;;;17.80;11.18;;;;;;;3.61;47.39;102058.22;346052;28;24067;-69
2021/03/07 00:10:34;;;;;;;18.00;11.00;;;;;;;3.60;47.35;102059.13;345562;28;1894;-68
2021/03/07 00:10:46;;;;;;;17.25;11.30;;;;;;;3.58;47.35;102055.63;345644;28;1161;-69
2021/03/07 00:10:57;;;;;;;16.17;11.50;;;;;;;3.59;47.61;102061.75;346690;28;1102;-69
2021/03/07 00:11:08;;;;;;;16.63;11.32;;;;;;;3.61;47.55;102057.38;345506;28;1049;-69
2021/03/07 00:11:19;;;;;;;16.42;10.82;;;;;;;3.64;47.72;102054.75;345424;28;1081;-69
2021/03/07 00:11:31;;;;;;;16.55;10.68;;;;;;;3.62;47.20;102057.38;346678;28;1138;-69
2021/03/07 00:11:42;;;;;;;15.30;10.48;;;;;;;3.65;47.39;102061.75;346709;28;1180;-69
2021/03/07 00:11:53;;;;;;;14.65;10.45;;;;;;;3.62;47.32;102057.38;346687;28;1277;-69
2021/03/07 00:12:04;;;;;;;14.20;10.70;;;;;;;3.61;47.37;102060.84;345660;28;1165;-69
2021/03/07 00:12:15;;;;;;;14.23;11.25;;;;;;;3.50;47.33;102057.34;346644;28;1118;-69
2021/03/07 00:12:27;;;;;;;14.40;11.10;;;;;;;3.42;47.51;102062.56;347831;28;1199;-69
2021/03/07 00:12:38;;;;;;;15.15;11.23;;;;;;;3.48;47.46;102059.94;348406;28;1088;-69
2021/03/07 00:12:50;;;;;;;15.07;11.02;;;;;;;3.49;47.62;102064.31;349491;28;1065;-69
2021/03/07 00:13:01;;;;;;;15.63;11.15;;;;;;;3.50;47.97;102054.72;349382;28;1178;-69
2021/03/07 00:13:12;;;;;;;15.48;11.00;;;;;;;3.56;47.64;102054.75;347345;28;1917;-69
2021/03/07 00:13:23;;;;;;;16.40;11.13;;;;;;;3.58;47.47;102062.59;346905;28;1193;-68
2021/03/07 00:13:34;;;;;;;16.75;11.20;;;;;;;3.61;47.51;102059.97;348058;28;1216;-68
2021/03/07 00:13:46;;;;;;;16.10;11.10;;;;;;;3.64;47.65;102055.66;348551;28;1151;-69
2021/03/07 00:13:57;;;;;;;15.00;10.57;;;;;;;3.63;47.25;102059.13;348065;28;1073;-69
2021/03/07 00:14:08;;;;;;;15.05;10.55;;;;;;;3.61;47.58;102059.97;350398;28;1262;-69
2021/03/07 00:14:19;;;;;;;14.98;10.55;;;;;;;3.51;47.54;102059.09;350821;28;1159;-70
2021/03/07 00:14:30;;;;;;;14.52;10.50;;;;;;;3.52;48.32;102060.84;350834;28;1113;-69
2021/03/07 00:14:41;;;;;;;14.02;10.30;;;;;;;3.48;47.31;102059.94;350839;28;1085;-71
2021/03/07 00:14:52;;;;;;;15.48;10.57;;;;;;;3.48;47.61;102064.31;350843;28;1037;-69
2021/03/07 00:15:05;;;;;;;15.75;10.73;;;;;;;3.50;47.62;102058.22;350777;28;1010;-70
2021/03/07 00:15:19;;;;;;;16.17;10.85;;;;;;;3.46;47.75;102056.47;349584;28;1133;-69
2021/03/07 00:15:30;;;;;;;15.43;10.93;;;;;;;3.51;47.60;102059.09;350019;28;23874;-68
2021/03/07 00:15:41;;;;;;;14.48;10.38;;;;;;;3.45;47.77;102051.22;350803;28;1201;-68
2021/03/07 00:15:52;;;;;;;14.77;10.35;;;;;;;3.43;47.49;102055.56;349376;28;1144;-69
2021/03/07 00:16:04;;;;;;;15.18;10.60;;;;;;;3.41;47.07;102060.81;349425;28;1105;-69
2021/03/07 00:16:15;;;;;;;15.27;10.98;;;;;;;3.38;47.37;102063.41;348636;28;1969;-68
2021/03/07 00:16:26;;;;;;;15.82;11.10;;;;;;;3.35;47.70;102059.03;348428;28;1104;-68
2021/03/07 00:16:37;;;;;;;14.95;11.02;;;;;;;3.40;47.80;102064.28;349482;28;1022;-68
2021/03/07 00:16:52;;;;;;;15.00;11.35;;;;;;;3.44;48.07;102060.81;346360;28;48828;-68
2021/03/07 00:17:03;;;;;;;16.67;11.40;;;;;;;3.43;47.66;102053.81;348094;28;1058;-69
2021/03/07 00:17:15;;;;;;;16.35;10.88;;;;;;;3.45;47.67;102061.66;348205;28;1189;-69
2021/03/07 00:17:26;;;;;;;16.00;10.60;;;;;;;3.47;47.55;102063.41;349350;28;1349;-68
2021/03/07 00:17:38;;;;;;;15.43;10.40;;;;;;;3.47;47.63;102065.16;349436;28;1073;-69
2021/03/07 00:17:51;;;;;;;15.82;10.65;;;;;;;3.43;47.56;102060.81;349377;28;1204;-69
2021/03/07 00:18:03;;;;;;;16.70;10.85;;;;;;;3.44;47.72;102057.31;349417;28;1150;-70
2021/03/07 00:18:14;;;;;;;15.98;10.82;;;;;;;3.48;47.57;102062.56;349437;28;1084;-69
2021/03/07 00:18:25;;;;;;;16.20;10.90;;;;;;;3.50;47.74;102058.22;350768;28;1961;-70
2021/03/07 00:18:37;;;;;;;15.18;10.85;;;;;;;3.55;47.49;102066.06;350805;28;1105;-69
2021/03/07 00:18:48;;;;;;;14.93;10.52;;;;;;;3.53;47.52;102060.84;350694;28;1919;-66
2021/03/07 00:18:59;;;;;;;14.00;10.45;;;;;;;3.53;47.51;102053.00;350681;28;1103;-69
2021/03/07 00:19:10;;;;;;;14.95;10.70;;;;;;;3.55;47.26;102059.09;347907;28;1113;-68
2021/03/07 00:19:21;;;;;;;15.35;10.93;;;;;;;3.54;47.57;102059.97;348276;28;1383;-69
2021/03/07 00:19:34;;;;;;;15.60;11.15;;;;;;;3.55;47.45;102059.09;349425;28;1036;-68
2021/03/07 00:19:45;;;;;;;15.02;10.75;;;;;;;3.51;47.74;102062.56;349380;28;1134;-68
2021/03/07 00:19:56;;;;;;;17.00;10.82;;;;;;;3.48;47.56;102052.09;348865;28;1101;-69
2021/03/07 00:20:10;;;;;;;17.40;10.63;;;;;;;3.53;47.40;102067.78;348036;28;1198;-69
2021/03/07 00:20:22;;;;;;;15.68;10.82;;;;;;;3.50;47.79;102058.22;348136;28;1081;-69
2021/03/07 00:20:34;;;;;;;14.38;10.85;;;;;;;3.54;47.60;102064.31;347960;28;1258;-69
2021/03/07 00:20:45;;;;;;;13.77;10.82;;;;;;;3.51;47.59;102062.56;348121;28;1156;-68
2021/03/07 00:20:56;;;;;;;14.73;10.80;;;;;;;3.50;47.61;102059.94;349035;28;1255;-69
2021/03/07 00:21:07;;;;;;;16.77;11.07;;;;;;;3.51;47.61;102061.69;348828;28;1161;-68
2021/03/07 00:21:19;;;;;;;17.08;11.13;;;;;;;3.52;47.78;102066.94;349585;28;1128;-69
2021/03/07 00:21:30;;;;;;;16.98;11.23;;;;;;;3.55;47.51;102053.00;350369;28;1899;-68
2021/03/07 00:21:41;;;;;;;16.25;11.07;;;;;;;3.52;47.31;102064.31;351305;28;1163;-69
2021/03/07 00:21:52;;;;;;;16.38;11.27;;;;;;;3.53;47.30;102058.22;351992;28;1135;-69
2021/03/07 00:22:03;;;;;;;16.05;11.15;;;;;;;3.54;47.74;102062.59;351715;28;1065;-69
2021/03/07 00:22:16;;;;;;;16.63;10.98;;;;;;;3.53;47.48;102065.19;350871;28;1118;-69
2021/03/07 00:22:27;;;;;;;16.80;11.07;;;;;;;3.55;48.01;102055.63;350722;28;1044;-69
2021/03/07 00:22:38;;;;;;;15.88;11.40;;;;;;;3.59;47.63;102062.59;351010;28;1353;-68
2021/03/07 00:22:50;;;;;;;16.05;11.32;;;;;;;3.57;47.74;102059.09;350829;28;1212;-68
2021/03/07 00:23:02;;;;;;;14.13;10.75;;;;;;;3.54;47.16;102064.31;350875;28;1077;-69
2021/03/07 00:23:13;;;;;;;15.27;10.95;;;;;;;3.52;47.48;102059.09;350891;28;1093;-69
2021/03/07 00:23:24;;;;;;;15.40;10.70;;;;;;;3.53;47.72;102062.56;349318;28;1196;-68
2021/03/07 00:23:35;;;;;;;15.45;10.40;;;;;;;3.56;48.04;102060.84;349407;28;1138;-68
2021/03/07 00:23:46;;;;;;;15.32;10.73;;;;;;;3.49;47.38;102056.47;349412;28;1132;-68
2021/03/07 00:23:57;;;;;;;14.75;10.95;;;;;;;3.48;47.54;102059.94;349450;28;1156;-68
2021/03/07 00:24:09;;;;;;;15.70;11.57;;;;;;;3.51;47.52;102059.94;349447;28;1057;-68
2021/03/07 00:24:20;;;;;;;15.82;11.50;;;;;;;3.53;47.80;102060.84;350391;28;1176;-69
2021/03/07 00:24:31;;;;;;;15.18;11.05;;;;;;;3.52;47.67;102061.69;350864;28;1212;-69
2021/03/07 00:24:42;;;;;;;15.23;10.98;;;;;;;3.45;47.47;102059.94;350814;28;1252;-69
2021/03/07 00:24:53;;;;;;;15.27;11.02;;;;;;;3.38;47.58;102066.03;350779;28;1224;-68
2021/03/07 00:25:07;;;;;;;15.13;10.73;;;;;;;3.38;47.63;102063.41;350876;28;1080;-69
2021/03/07 00:25:18;;;;;;;15.07;10.70;;;;;;;3.34;47.21;102056.44;350455;28;1061;-69
2021/03/07 00:25:29;;;;;;;15.57;10.75;;;;;;;3.30;47.99;102057.28;349379;28;1923;-69
2021/03/07 00:25:40;;;;;;;14.98;10.73;;;;;;;3.29;47.87;102059.00;350242;28;1140;-69
2021/03/07 00:25:51;;;;;;;15.43;10.95;;;;;;;3.27;47.89;102062.47;349990;28;1243;-69
2021/03/07 00:26:04;;;;;;;15.43;11.20;;;;;;;3.34;48.31;102056.44;350322;28;1069;-68
2021/03/07 00:26:15;;;;;;;15.90;11.57;;;;;;;3.35;47.65;102061.66;349470;28;1123;-68
2021/03/07 00:26:26;;;;;;;14.95;11.27;;;;;;;3.35;47.85;102061.66;349355;28;1093;-69
2021/03/07 00:26:37;;;;;;;15.57;11.38;;;;;;;3.34;48.07;102061.66;349376;28;1137;-69
2021/03/07 00:26:48;;;;;;;14.45;11.00;;;;;;;3.35;47.88;102063.38;349490;28;1148;-68
2021/03/07 00:26:59;;;;;;;15.02;11.10;;;;;;;3.33;47.96;102065.97;349394;28;1179;-68
2021/03/07 00:27:10;;;;;;;14.88;10.85;;;;;;;3.38;47.65;102063.41;349370;28;1060;-69
2021/03/07 00:27:21;;;;;;;15.35;10.95;;;;;;;3.30;47.60;102065.13;349466;28;1323;-69
2021/03/07 00:27:33;;;;;;;14.95;10.65;;;;;;;3.33;47.57;102070.34;349432;28;1216;-69
2021/03/07 00:27:46;;;;;;;14.95;10.70;;;;;;;3.33;47.83;102060.75;349355;28;1207;-69
2021/03/07 00:27:57;;;;;;;14.73;10.90;;;;;;;3.33;47.87;102070.34;349337;28;1254;-69
2021/03/07 00:28:08;;;;;;;14.85;10.77;;;;;;;3.35;48.03;102060.75;349345;28;1140;-69
2021/03/07 00:28:19;;;;;;;13.43;10.63;;;;;;;3.37;47.97;102066.88;349968;28;1970;-69
2021/03/07 00:28:31;;;;;;;14.07;10.75;;;;;;;3.39;47.90;102059.91;350142;28;1204;-69
2021/03/07 00:28:42;;;;;;;16.33;11.02;;;;;;;3.40;47.89;102061.66;350613;28;1147;-69
2021/03/07 00:28:53;;;;;;;16.92;11.10;;;;;;;3.39;47.77;102063.41;349390;28;1147;-69
2021/03/07 00:29:05;;;;;;;16.42;11.10;;;;;;;3.43;47.83;102056.44;349388;28;1061;-69
2021/03/07 00:29:17;;;;;;;15.48;10.90;;;;;;;3.38;48.02;102059.03;350146;28;1069;-68
2021/03/07 00:29:28;;;;;;;14.43;10.70;;;;;;;3.40;48.04;102054.69;349569;28;1133;-69
2021/03/07 00:29:39;;;;;;;15.30;10.68;;;;;;;3.43;47.86;102051.22;349499;28;1166;-69
2021/03/07 00:29:51;;;;;;;15.63;10.95;;;;;;;3.42;47.96;102061.66;349317;28;1073;-69
2021/03/07 00:30:05;;;;;;;15.75;11.18;;;;;;;3.47;47.90;102058.19;349402;28;1081;-69
2021/03/07 00:30:18;;;;;;;15.10;11.18;;;;;;;3.43;47.69;102052.97;348722;28;25531;-69
2021/03/07 00:30:29;;;;;;;15.32;11.15;;;;;;;3.45;47.87;102062.56;350985;28;1044;-69
2021/03/07 00:30:40;;;;;;;14.50;11.05;;;;;;;3.49;47.81;102058.19;350952;28;1134;-69
2021/03/07 00:30:53;;;;;;;14.57;10.88;;;;;;;3.51;47.91;102054.72;350822;28;1131;-70
2021/03/07 00:31:04;;;;;;;14.68;10.85;;;;;;;3.49;47.58;102055.59;350888;28;1316;-69
2021/03/07 00:31:16;;;;;;;16.34;11.38;;;;;;;3.41;47.76;102055.56;350942;28;2164;-69
2021/03/07 00:31:27;;;;;;;16.95;11.40;;;;;;;3.42;47.69;102054.72;350858;28;1206;-69
2021/03/07 00:31:38;;;;;;;15.98;10.75;;;;;;;3.37;47.52;102059.03;350039;28;1923;-69
2021/03/07 00:31:50;;;;;;;14.63;10.60;;;;;;;3.40;47.86;102053.81;350220;28;1101;-69
2021/03/07 00:32:01;;;;;;;15.10;10.80;;;;;;;3.41;47.81;102058.19;349521;28;1184;-68
2021/03/07 00:32:12;;;;;;;16.35;11.20;;;;;;;3.37;47.63;102051.22;350902;28;1106;-68
2021/03/07 00:32:24;;;;;;;17.27;11.52;;;;;;;3.43;47.42;102055.56;351029;28;1069;-69
2021/03/07 00:32:35;;;;;;;16.17;11.18;;;;;;;3.43;47.69;102056.44;350663;28;1189;-69
2021/03/07 00:32:48;;;;;;;14.98;11.00;;;;;;;3.41;47.50;102058.19;350073;28;1833;-69
2021/03/07 00:32:59;;;;;;;15.32;10.95;;;;;;;3.44;47.76;102052.97;350983;28;1281;-69
2021/03/07 00:33:11;;;;;;;16.15;11.10;;;;;;;3.41;47.55;102052.97;350985;28;1328;-69
2021/03/07 00:33:22;;;;;;;16.42;11.02;;;;;;;3.38;47.42;102053.81;350958;28;1148;-69
2021/03/07 00:33:33;;;;;;;16.73;11.18;;;;;;;3.37;47.36;102054.69;350929;28;1078;-68
2021/03/07 00:33:44;;;;;;;16.58;11.25;;;;;;;3.39;47.88;102062.50;349757;28;1013;-69
2021/03/07 00:33:56;;;;;;;14.98;10.82;;;;;;;3.41;48.46;102055.56;349578;28;1191;-69
2021/03/07 00:34:07;;;;;;;14.75;10.57;;;;;;;3.37;47.75;102051.22;349538;28;1069;-70
2021/03/07 00:34:18;;;;;;;14.85;10.27;;;;;;;3.33;47.88;102047.69;349488;28;1126;-68
2021/03/07 00:34:29;;;;;;;15.32;10.73;;;;;;;3.27;48.10;102052.91;350140;28;1270;-69
2021/03/07 00:34:41;;;;;;;14.25;11.13;;;;;;;3.29;47.62;102055.53;350916;28;1160;-69
2021/03/07 00:34:52;;;;;;;13.85;11.02;;;;;;;3.28;47.57;102056.38;350953;28;1170;-69
2021/03/07 00:35:04;;;;;;;14.57;10.82;;;;;;;3.31;47.57;102053.78;350934;28;1219;-69
2021/03/07 00:35:15;;;;;;;15.13;10.82;;;;;;;3.28;47.86;102052.03;350918;28;1076;-69
2021/03/07 00:35:26;;;;;;;16.08;10.82;;;;;;;3.33;48.08;102059.91;350845;28;1245;-68
2021/03/07 00:35:38;;;;;;;15.05;10.43;;;;;;;3.35;47.75;102050.31;350111;28;1088;-69
2021/03/07 00:35:49;;;;;;;15.20;10.77;;;;;;;3.30;47.37;102052.06;349951;28;1909;-67
2021/03/07 00:36:00;;;;;;;14.80;10.70;;;;;;;3.35;47.87;102055.53;349769;28;1080;-69
2021/03/07 00:36:12;;;;;;;15.77;11.27;;;;;;;3.34;48.25;102057.28;350791;28;1214;-69
2021/03/07 00:36:23;;;;;;;15.95;11.20;;;;;;;3.36;47.54;102049.44;350741;28;1177;-69
2021/03/07 00:36:34;;;;;;;15.38;11.13;;;;;;;3.41;47.68;102052.97;350453;28;1181;-69
2021/03/07 00:36:45;;;;;;;15.43;10.98;;;;;;;3.39;47.67;102045.13;349582;28;1193;-69
2021/03/07 00:36:56;;;;;;;15.02;10.90;;;;;;;3.39;48.27;102052.06;349546;28;1166;-71
2021/03/07 00:37:08;;;;;;;14.65;10.60;;;;;;;3.36;48.15;102054.69;349568;28;1059;-69
2021/03/07 00:37:19;;;;;;;14.93;10.73;;;;;;;3.24;48.03;102042.44;349423;28;1140;-69
2021/03/07 00:37:32;;;;;;;15.60;10.93;;;;;;;3.27;47.85;102057.25;349527;28;1149;-68
2021/03/07 00:37:43;;;;;;;14.80;10.90;;;;;;;3.29;47.54;102050.31;349445;28;1155;-69
2021/03/07 00:37:54;;;;;;;14.95;11.13;;;;;;;3.31;47.64;102057.28;350368;28;1202;-69
2021/03/07 00:38:05;;;;;;;16.80;11.43;;;;;;;3.31;48.05;102053.78;350930;28;1168;-69
2021/03/07 00:38:16;;;;;;;18.20;11.48;;;;;;;3.30;48.04;102047.69;349898;28;1887;-69
2021/03/07 00:38:27;;;;;;;17.98;11.35;;;;;;;3.34;47.88;102051.19;350130;28;1638;-69
2021/03/07 00:38:38;;;;;;;16.95;10.95;;;;;;;3.37;47.87;102051.22;349542;28;1116;-69
2021/03/07 00:38:50;;;;;;;16.13;10.80;;;;;;;3.35;48.18;102053.81;349599;28;1142;-69
2021/03/07 00:39:07;;;;;;;15.88;11.02;;;;;;;3.40;48.18;102054.69;347179;28;72226;-69
2021/03/07 00:39:24;;;;;;;15.32;11.20;;;;;;;3.37;47.84;102056.44;347088;28;71810;-69
2021/03/07 00:39:35;;;;;;;14.18;10.80;;;;;;;3.34;48.22;102049.44;350149;28;1297;-68
2021/03/07 00:39:46;;;;;;;13.86;10.94;;;;;;;3.32;47.92;102051.16;350919;28;1051;-68
2021/03/07 00:39:57;;;;;;;12.90;10.75;;;;;;;3.31;47.84;102049.44;350965;28;1114;-69
2021/03/07 00:40:09;;;;;;;13.88;11.00;;;;;;;3.20;47.52;102049.41;350872;28;1142;-69
2021/03/07 00:40:20;;;;;;;14.40;11.05;;;;;;;3.17;47.73;102053.72;350080;28;1071;-68
2021/03/07 00:40:32;;;;;;;15.40;11.15;;;;;;;3.21;48.05;102050.25;349539;28;1228;-69
2021/03/07 00:40:43;;;;;;;15.93;11.13;;;;;;;3.21;47.91;102051.16;349575;28;1092;-69
2021/03/07 00:40:54;;;;;;;16.25;11.40;;;;;;;3.26;48.04;102053.78;349620;28;1089;-69
2021/03/07 00:41:05;;;;;;;15.85;11.18;;;;;;;3.28;48.36;102046.78;349423;28;1078;-69
2021/03/07 00:41:16;;;;;;;15.68;11.20;;;;;;;3.28;48.07;102052.03;349609;28;1993;-69
2021/03/07 00:41:27;;;;;;;15.63;11.30;;;;;;;3.29;48.07;102042.47;349375;28;1101;-69
2021/03/07 00:41:40;;;;;;;16.38;11.60;;;;;;;3.27;48.11;102044.19;349510;28;1201;-70
2021/03/07 00:41:52;;;;;;;16.18;11.50;;;;;;;3.21;48.16;102053.75;349485;28;2115;-70
2021/03/07 00:42:03;;;;;;;15.77;11.43;;;;;;;3.26;48.24;102051.16;349453;28;1178;-69
2021/03/07 00:42:14;;;;;;;15.70;10.95;;;;;;;3.31;48.11;102043.34;349482;28;1207;-69
2021/03/07 00:42:25;;;;;;;15.38;10.68;;;;;;;3.34;48.11;102046.84;349559;28;1349;-70
2021/03/07 00:42:44;;;;;;;15.60;10.80;;;;;;;3.37;48.25;102051.22;349539;28;1228;-70
2021/03/07 00:42:55;;;;;;;15.80;11.25;;;;;;;3.34;47.70;102046.84;347044;28;71596;-70
2021/03/07 00:43:06;;;;;;;15.00;11.20;;;;;;;3.34;48.38;102052.06;349437;28;1304;-68
2021/03/07 00:43:19;;;;;;;15.60;11.40;;;;;;;3.29;48.04;102051.16;349761;28;1085;-69
2021/03/07 00:43:30;;;;;;;16.42;11.82;;;;;;;3.33;48.22;102049.44;350602;28;1406;-70
2021/03/07 00:43:42;;;;;;;15.73;11.52;;;;;;;3.33;48.14;102042.47;350837;28;1087;-69
2021/03/07 00:43:53;;;;;;;14.70;11.02;;;;;;;3.36;48.04;102052.94;349813;28;1971;-69
2021/03/07 00:44:06;;;;;;;16.13;11.10;;;;;;;3.38;47.89;102050.34;349623;28;1142;-69
2021/03/07 00:44:18;;;;;;;15.68;11.15;;;;;;;3.28;47.96;102033.75;350040;28;24051;-71
2021/03/07 00:44:29;;;;;;;13.90;10.68;;;;;;;3.35;47.74;102045.97;349404;28;1013;-69
2021/03/07 00:44:40;;;;;;;13.90;10.80;;;;;;;3.38;47.75;102045.13;349454;28;1128;-69
2021/03/07 00:44:51;;;;;;;15.52;11.02;;;;;;;3.37;47.35;102051.22;349300;28;1229;-69
2021/03/07 00:45:06;;;;;;;16.95;11.50;;;;;;;3.41;48.14;102050.34;348674;28;1163;-68
2021/03/07 00:45:19;;;;;;;17.80;11.25;;;;;;;3.43;47.91;102050.34;347865;28;48081;-70
2021/03/07 00:45:32;;;;;;;16.80;11.23;;;;;;;3.43;47.59;102050.34;348623;28;23753;-69
2021/03/07 00:45:43;;;;;;;15.07;11.35;;;;;;;3.45;47.93;102051.22;349086;28;2738;-69
2021/03/07 00:45:54;;;;;;;14.80;11.43;;;;;;;3.46;47.64;102046.03;347990;28;1189;-69
2021/03/07 00:46:06;;;;;;;14.48;11.40;;;;;;;3.40;47.70;102046.00;348034;28;1205;-69
2021/03/07 00:46:17;;;;;;;15.20;11.30;;;;;;;3.38;47.47;102038.16;348103;28;1044;-69
2021/03/07 00:46:29;;;;;;;17.00;11.57;;;;;;;3.37;47.82;102051.22;348023;28;2059;-69
2021/03/07 00:46:42;;;;;;;16.75;11.65;;;;;;;3.29;47.88;102043.31;348124;28;1149;-69
2021/03/07 00:46:54;;;;;;;15.43;11.38;;;;;;;3.29;47.87;102042.47;349224;28;1273;-67
2021/03/07 00:47:06;;;;;;;13.68;10.88;;;;;;;3.30;47.54;102044.22;349408;28;1168;-69
2021/03/07 00:47:17;;;;;;;13.20;10.57;;;;;;;3.22;47.57;102047.66;349418;28;1130;-69
2021/03/07 00:47:29;;;;;;;13.50;10.60;;;;;;;3.22;47.69;102042.44;349515;28;1006;-69
2021/03/07 00:47:41;;;;;;;14.75;10.80;;;;;;;3.27;47.92;102049.41;350690;28;1084;-69
2021/03/07 00:47:52;;;;;;;15.75;11.05;;;;;;;3.28;47.71;102045.94;350034;28;1169;-69
2021/03/07 00:48:04;;;;;;;16.00;11.30;;;;;;;3.33;48.03;102044.22;349587;28;1162;-68
2021/03/07 00:48:15;;;;;;;16.95;11.52;;;;;;;3.32;47.91;102047.69;349533;28;1073;-69
2021/03/07 00:48:26;;;;;;;15.68;11.27;;;;;;;3.27;48.03;102037.25;349601;28;1152;-68
2021/03/07 00:48:38;;;;;;;15.82;11.13;;;;;;;3.26;48.09;102048.53;350898;28;1265;-69
2021/03/07 00:48:49;;;;;;;15.52;11.18;;;;;;;3.29;47.38;102039.84;349396;28;2109;-69
2021/03/07 00:49:01;;;;;;;15.85;11.23;;;;;;;3.24;47.51;102039.81;349414;28;1169;-69
2021/03/07 00:49:15;;;;;;;14.98;10.98;;;;;;;3.26;47.67;102047.69;349197;28;1963;-69
2021/03/07 00:49:30;;;;;;;14.38;11.02;;;;;;;3.28;47.79;102049.41;348871;28;25748;-69
2021/03/07 00:49:42;;;;;;;14.80;11.00;;;;;;;3.21;47.56;102045.94;349955;28;23854;-68
2021/03/07 00:49:53;;;;;;;13.70;10.60;;;;;;;3.20;47.67;102045.88;350698;28;2018;-69
2021/03/07 00:50:08;;;;;;;14.15;10.80;;;;;;;3.18;47.62;102045.88;350795;28;1153;-68
2021/03/07 00:50:21;;;;;;;15.25;10.90;;;;;;;3.26;47.67;102050.28;348965;28;49327;-69
2021/03/07 00:50:37;;;;;;;16.95;10.85;;;;;;;3.24;48.29;102047.66;348357;28;71847;-70
2021/03/07 00:50:48;;;;;;;16.63;10.88;;;;;;;3.29;47.64;102047.69;350934;28;1123;-69
2021/03/07 00:50:59;;;;;;;15.55;10.90;;;;;;;3.22;47.92;102045.03;350927;28;1104;-69
2021/03/07 00:51:10;;;;;;;15.55;11.07;;;;;;;3.23;47.75;102049.41;351018;28;1048;-69
2021/03/07 00:51:21;;;;;;;15.90;11.00;;;;;;;3.26;47.80;102045.94;349921;28;1170;-70
2021/03/07 00:51:33;;;;;;;17.08;11.15;;;;;;;3.29;47.69;102045.94;349473;28;1244;-69
2021/03/07 00:51:44;;;;;;;16.38;11.18;;;;;;;3.28;47.58;102041.56;350751;28;1113;-70
2021/03/07 00:51:56;;;;;;;15.77;11.20;;;;;;;3.24;47.64;102047.66;350519;28;1998;-69
2021/03/07 00:52:07;;;;;;;16.52;11.18;;;;;;;3.17;47.87;102044.16;351309;28;1162;-70
2021/03/07 00:52:18;;;;;;;16.00;10.98;;;;;;;3.15;48.13;102040.66;352178;28;1076;-70
2021/03/07 00:52:29;;;;;;;16.33;10.73;;;;;;;3.15;47.82;102039.81;350831;28;1626;-68
2021/03/07 00:52:40;;;;;;;15.43;10.70;;;;;;;3.14;48.03;102043.28;350791;28;1147;-69
2021/03/07 00:52:54;;;;;;;15.93;11.05;;;;;;;3.06;48.26;102040.59;350794;28;1088;-68
2021/03/07 00:53:05;;;;;;;16.13;11.30;;;;;;;3.12;48.39;102051.09;352213;28;1215;-69
2021/03/07 00:53:16;;;;;;;15.95;11.15;;;;;;;3.08;48.24;102043.22;352123;28;1108;-68
2021/03/07 00:53:27;;;;;;;15.25;11.18;;;;;;;3.16;48.06;102041.53;352210;28;1129;-69
2021/03/07 00:53:38;;;;;;;14.18;10.95;;;;;;;3.10;48.16;102041.50;351764;28;1439;-70
2021/03/07 00:53:49;;;;;;;14.98;11.25;;;;;;;3.10;48.66;102044.97;350886;28;1135;-68
2021/03/07 00:54:00;;;;;;;15.77;11.23;;;;;;;3.06;47.70;102040.59;350237;28;1160;-70
2021/03/07 00:54:12;;;;;;;16.62;11.38;;;;;;;3.03;47.97;102040.59;349455;28;1143;-70
2021/03/07 00:54:23;;;;;;;16.77;11.55;;;;;;;3.04;48.25;102042.34;349509;28;1052;-70
2021/03/07 00:54:34;;;;;;;16.08;11.73;;;;;;;3.04;48.30;102039.75;349450;28;1217;-69
2021/03/07 00:54:45;;;;;;;16.17;11.68;;;;;;;3.03;48.44;102036.25;349601;28;1148;-69
2021/03/07 00:54:57;;;;;;;16.90;11.77;;;;;;;3.02;48.06;102041.47;349480;28;1134;-70